Time;durP1;ratioP1;P1;durP2;ratioP2;P2;SDS_P1;SDS_P2;PMS_P1;PMS_P2;Temp;Humidity;BMP_temperature;BMP_pressure;BME280_temperature;BME280_humidity;BME280_pressure;Samples;Min_cycle;Max_cycle;Signal;HPM_P1;HPM_P2
2021/11/01 00:00:27;;;;;;;;;;;14.30;99.90;;;;;;5110117;28;19915;-83
2021/11/01 00:02:52;;;;;;;;;;;14.30;99.90;;;;;;5121658;28;19974;-82
2021/11/01 00:05:19;;;;;;;;;;;14.40;99.90;;;;;;5103686;28;19911;-82
2021/11/01 00:07:44;;;;;;;;;;;14.40;99.90;;;;;;5121452;28;19935;-83
2021/11/01 00:10:12;;;;;;;;;;;14.40;99.90;;;;;;5121689;28;19953;-83
2021/11/01 00:12:38;;;;;;;;;;;14.40;99.90;;;;;;5121078;28;19980;-82
2021/11/01 00:15:04;;;;;;;;;;;14.50;99.90;;;;;;5121764;28;19904;-83
2021/11/01 00:17:30;;;;;;;;;;;14.50;99.90;;;;;;5122041;28;19941;-83
2021/11/01 00:19:55;;;;;;;;;;;14.60;99.90;;;;;;5121882;28;19939;-83
2021/11/01 00:22:22;;;;;;;;;;;14.30;99.90;;;;;;5121938;28;19908;-83
2021/11/01 00:24:47;;;;;;;;;;;14.10;99.90;;;;;;5121736;28;20100;-84
2021/11/01 00:27:13;;;;;;;;;;;13.80;99.90;;;;;;5117739;28;19904;-83
2021/11/01 00:29:39;;;;;;;;;;;13.60;99.90;;;;;;5105448;28;19905;-86
2021/11/01 00:32:05;;;;;;;;;;;13.30;99.90;;;;;;5104724;28;19904;-88
2021/11/01 00:34:30;;;;;;;;;;;13.10;99.90;;;;;;5104816;28;20188;-83
2021/11/01 00:36:56;;;;;;;;;;;12.80;99.90;;;;;;5105098;28;19926;-81
2021/11/01 00:39:22;;;;;;;;;;;12.70;99.90;;;;;;5105136;28;20215;-82
2021/11/01 00:41:47;;;;;;;;;;;12.50;99.90;;;;;;5103946;28;19923;-82
2021/11/01 00:44:13;;;;;;;;;;;12.50;99.90;;;;;;5104496;28;19935;-83
2021/11/01 00:46:38;;;;;;;;;;;12.40;99.90;;;;;;5104812;28;19908;-84
2021/11/01 00:49:05;;;;;;;;;;;12.30;99.90;;;;;;5104676;28;20111;-83
2021/11/01 00:51:36;;;;;;;;;;;12.30;99.90;;;;;;5104484;28;19904;-84
2021/11/01 00:54:03;;;;;;;;;;;12.20;99.90;;;;;;5106752;28;19908;-84
2021/11/01 00:56:28;;;;;;;;;;;12.20;99.90;;;;;;5104618;28;20223;-85
2021/11/01 00:58:54;;;;;;;;;;;12.20;99.90;;;;;;5104544;28;19904;-86
2021/11/01 01:01:19;;;;;;;;;;;12.20;99.90;;;;;;5104151;28;20199;-86
2021/11/01 01:03:45;;;;;;;;;;;12.30;99.90;;;;;;5104163;28;20189;-87
2021/11/01 01:06:11;;;;;;;;;;;12.30;99.90;;;;;;5102749;28;20115;-87
2021/11/01 01:08:37;;;;;;;;;;;12.30;99.90;;;;;;5104672;28;19904;-87
2021/11/01 01:11:03;;;;;;;;;;;12.40;99.90;;;;;;5086079;28;19927;-88
2021/11/01 01:13:34;;;;;;;;;;;12.50;99.90;;;;;;5085863;28;19911;-88
2021/11/01 01:19:00;;;;;;;;;;;12.50;99.90;;;;;;5071391;28;19935;-87
2021/11/01 01:24:11;;;;;;;;;;;12.40;99.90;;;;;;5103484;28;20046;-85
2021/11/01 01:26:36;;;;;;;;;;;12.40;99.90;;;;;;5085468;28;20015;-86
2021/11/01 01:29:04;;;;;;;;;;;12.30;99.90;;;;;;5104244;28;19912;-86
2021/11/01 01:31:31;;;;;;;;;;;12.30;99.90;;;;;;5103745;28;19989;-86
2021/11/01 01:33:57;;;;;;;;;;;12.20;99.90;;;;;;5103290;28;19950;-86
2021/11/01 01:36:22;;;;;;;;;;;12.20;99.90;;;;;;5118065;28;19916;-85
2021/11/01 01:38:49;;;;;;;;;;;12.30;99.90;;;;;;5086019;28;19904;-85
2021/11/01 01:41:19;;;;;;;;;;;12.50;99.90;;;;;;5103174;28;19916;-85
2021/11/01 01:43:49;;;;;;;;;;;12.70;99.90;;;;;;5103007;28;20130;-84
2021/11/01 01:46:16;;;;;;;;;;;12.80;99.90;;;;;;5103429;28;20341;-84
2021/11/01 01:48:42;;;;;;;;;;;12.80;99.90;;;;;;5103438;28;19904;-84
2021/11/01 01:51:09;;;;;;;;;;;12.90;99.90;;;;;;5085788;28;19904;-84
2021/11/01 01:53:35;;;;;;;;;;;13.00;99.90;;;;;;5085419;28;19912;-83
2021/11/01 01:56:01;;;;;;;;;;;13.00;99.90;;;;;;5103265;28;20096;-84
2021/11/01 01:58:28;;;;;;;;;;;13.10;99.90;;;;;;5103474;28;19904;-83
2021/11/01 02:01:14;;;;;;;;;;;13.10;99.90;;;;;;5102957;28;19990;-84
2021/11/01 02:03:40;;;;;;;;;;;13.10;99.90;;;;;;5102566;28;19904;-83
2021/11/01 02:06:06;;;;;;;;;;;13.20;99.90;;;;;;5103090;28;19904;-83
2021/11/01 02:08:35;;;;;;;;;;;13.10;99.90;;;;;;5103099;28;19904;-83
2021/11/01 02:11:06;;;;;;;;;;;13.10;99.90;;;;;;5084972;28;20082;-83
2021/11/01 02:13:33;;;;;;;;;;;13.30;99.90;;;;;;5102763;28;19951;-83
2021/11/01 02:16:00;;;;;;;;;;;13.40;99.90;;;;;;5103298;28;19905;-83
2021/11/01 02:18:25;;;;;;;;;;;13.30;99.90;;;;;;5103340;28;19904;-83
2021/11/01 02:21:05;;;;;;;;;;;13.40;99.90;;;;;;5103104;28;20241;-83
2021/11/01 02:23:56;;;;;;;;;;;13.30;99.90;;;;;;5102936;28;19904;-83
2021/11/01 02:26:23;;;;;;;;;;;13.40;99.90;;;;;;5071183;28;19908;-83
2021/11/01 02:28:50;;;;;;;;;;;13.40;99.90;;;;;;5102576;28;19911;-83
2021/11/01 02:31:17;;;;;;;;;;;13.40;99.90;;;;;;5085096;28;20073;-83
2021/11/01 02:33:43;;;;;;;;;;;13.40;99.90;;;;;;5102781;28;19976;-80
2021/11/01 02:36:09;;;;;;;;;;;13.20;99.90;;;;;;5102485;28;19908;-81
2021/11/01 02:38:35;;;;;;;;;;;12.90;99.90;;;;;;5102151;28;19979;-81
2021/11/01 02:41:06;;;;;;;;;;;12.70;99.90;;;;;;5102320;28;19958;-82
2021/11/01 02:43:32;;;;;;;;;;;12.60;99.90;;;;;;5102069;28;19971;-82
2021/11/01 02:45:57;;;;;;;;;;;12.50;99.90;;;;;;5102163;28;19915;-83
2021/11/01 02:48:23;;;;;;;;;;;12.50;99.90;;;;;;5102187;28;19904;-83
2021/11/01 02:50:48;;;;;;;;;;;12.50;99.90;;;;;;5101824;28;19915;-84
2021/11/01 02:53:14;;;;;;;;;;;12.50;99.90;;;;;;5102325;28;19967;-84
2021/11/01 02:55:40;;;;;;;;;;;12.50;99.90;;;;;;5102369;28;20196;-86
2021/11/01 02:58:05;;;;;;;;;;;12.50;99.90;;;;;;5101983;28;19911;-86
2021/11/01 03:00:32;;;;;;;;;;;12.50;99.90;;;;;;5101939;28;19964;-86
2021/11/01 03:02:57;;;;;;;;;;;12.60;99.90;;;;;;5102218;28;20161;-86
2021/11/01 03:05:24;;;;;;;;;;;12.50;99.90;;;;;;5102582;28;19936;-87
2021/11/01 03:07:54;;;;;;;;;;;12.40;99.90;;;;;;5084182;28;19958;-87
2021/11/01 03:10:20;;;;;;;;;;;12.30;99.90;;;;;;5083264;28;19915;-87
2021/11/01 03:12:47;;;;;;;;;;;12.30;99.90;;;;;;5101461;28;20188;-87
2021/11/01 03:15:21;;;;;;;;;;;12.30;99.90;;;;;;5102366;28;20115;-88
2021/11/01 03:17:48;;;;;;;;;;;12.30;99.90;;;;;;5101456;28;19904;-87
2021/11/01 03:20:15;;;;;;;;;;;12.30;99.90;;;;;;5117205;28;19915;-87
2021/11/01 03:22:43;;;;;;;;;;;12.30;99.90;;;;;;5102587;28;20215;-88
2021/11/01 03:25:11;;;;;;;;;;;12.30;99.90;;;;;;5101766;28;19908;-88
2021/11/01 03:27:38;;;;;;;;;;;12.30;99.90;;;;;;5084028;28;19904;-87
2021/11/01 03:30:04;;;;;;;;;;;12.30;99.90;;;;;;5097028;28;20360;-88
2021/11/01 03:32:30;;;;;;;;;;;12.40;99.90;;;;;;5102274;28;19912;-88
2021/11/01 03:34:57;;;;;;;;;;;12.50;99.90;;;;;;5083844;28;20155;-87
2021/11/01 03:37:24;;;;;;;;;;;12.50;99.90;;;;;;5083676;28;19904;-88
2021/11/01 03:39:50;;;;;;;;;;;12.60;99.90;;;;;;5111633;28;19904;-87
2021/11/01 03:42:16;;;;;;;;;;;12.60;99.90;;;;;;5120665;28;20237;-87
2021/11/01 03:44:51;;;;;;;;;;;12.70;99.90;;;;;;5101601;28;19961;-88
2021/11/01 03:47:16;;;;;;;;;;;12.70;99.90;;;;;;5102047;28;19904;-88
2021/11/01 03:49:52;;;;;;;;;;;12.70;99.90;;;;;;5083603;28;19911;-88
2021/11/01 03:52:22;;;;;;;;;;;12.70;99.90;;;;;;5101301;28;19904;-87
2021/11/01 03:54:48;;;;;;;;;;;12.60;99.90;;;;;;5102094;28;20001;-88
2021/11/01 03:57:14;;;;;;;;;;;12.60;99.90;;;;;;5083738;28;19988;-87
2021/11/01 03:59:39;;;;;;;;;;;12.60;99.90;;;;;;5101708;28;19911;-88
2021/11/01 04:02:09;;;;;;;;;;;12.60;99.90;;;;;;5084504;28;20074;-87
2021/11/01 04:04:35;;;;;;;;;;;12.60;99.90;;;;;;5087544;28;20110;-88
2021/11/01 04:07:00;;;;;;;;;;;12.60;99.90;;;;;;5105911;28;19904;-88
2021/11/01 04:09:26;;;;;;;;;;;12.60;99.90;;;;;;5107323;28;20260;-88
2021/11/01 04:11:52;;;;;;;;;;;12.60;99.90;;;;;;5117179;28;19957;-87
2021/11/01 04:14:21;;;;;;;;;;;12.70;99.90;;;;;;5106032;28;19905;-88
2021/11/01 04:16:48;;;;;;;;;;;12.70;99.90;;;;;;5105207;28;20253;-88
2021/11/01 04:21:44;;;;;;;;;;;12.70;99.90;;;;;;5105543;28;19919;-88
2021/11/01 04:24:09;;;;;;;;;;;12.80;99.90;;;;;;5087565;28;19941;-89
2021/11/01 04:26:35;;;;;;;;;;;12.90;99.90;;;;;;5105598;28;19917;-88
2021/11/01 04:29:04;;;;;;;;;;;13.00;99.90;;;;;;5104850;28;19911;-87
2021/11/01 04:31:33;;;;;;;;;;;13.00;99.90;;;;;;5087029;28;20188;-88
2021/11/01 04:34:10;;;;;;;;;;;13.00;99.90;;;;;;5105043;28;19912;-87
2021/11/01 04:36:36;;;;;;;;;;;13.00;99.90;;;;;;5086708;28;19911;-88
2021/11/01 04:55:12;;;;;;;;;;;13.10;99.90;;;;;;5104476;28;19915;-85
2021/11/01 04:57:38;;;;;;;;;;;13.20;99.90;;;;;;5118708;28;19904;-86
2021/11/01 05:00:04;;;;;;;;;;;13.20;99.90;;;;;;5104513;28;19984;-85
2021/11/01 05:02:30;;;;;;;;;;;13.30;99.90;;;;;;5104973;28;19908;-84
2021/11/01 05:04:57;;;;;;;;;;;13.30;99.90;;;;;;5104242;28;20142;-85
2021/11/01 05:07:24;;;;;;;;;;;13.30;99.90;;;;;;5104065;28;19904;-84
2021/11/01 05:12:30;;;;;;;;;;;13.30;99.90;;;;;;5103114;28;20152;-86
2021/11/01 05:25:06;;;;;;;;;;;13.30;99.90;;;;;;5103899;28;19908;-84
2021/11/01 05:30:08;;;;;;;;;;;13.10;99.90;;;;;;5104223;28;20204;-88
2021/11/01 05:32:34;;;;;;;;;;;13.00;99.90;;;;;;5104375;28;20280;-88
2021/11/01 05:35:00;;;;;;;;;;;12.90;99.90;;;;;;5103975;28;20208;-88
2021/11/01 05:37:25;;;;;;;;;;;12.90;99.90;;;;;;5103608;28;19904;-88
2021/11/01 05:39:51;;;;;;;;;;;12.90;99.90;;;;;;5085724;28;19983;-88
2021/11/01 05:42:17;;;;;;;;;;;12.90;99.90;;;;;;5103362;28;19916;-88
2021/11/01 05:44:42;;;;;;;;;;;13.00;99.90;;;;;;5103695;28;20189;-91
2021/11/01 05:47:09;;;;;;;;;;;13.00;99.90;;;;;;5103510;28;19904;-88
2021/11/01 05:49:38;;;;;;;;;;;13.00;99.90;;;;;;5103668;28;20104;-88
2021/11/01 05:52:05;;;;;;;;;;;13.00;99.90;;;;;;5084709;28;20207;-88
2021/11/01 05:54:32;;;;;;;;;;;13.00;99.90;;;;;;5103717;28;19946;-87
2021/11/01 05:57:23;;;;;;;;;;;12.90;99.90;;;;;;5103412;28;19935;-87
2021/11/01 06:02:57;;;;;;;;;;;13.00;99.90;;;;;;5027296;28;19913;-84
2021/11/01 06:15:56;;;;;;;;;;;13.20;99.90;;;;;;5102998;28;20182;-84
2021/11/01 06:18:30;;;;;;;;;;;13.10;99.90;;;;;;5102948;28;19932;-83
2021/11/01 06:20:56;;;;;;;;;;;13.20;99.90;;;;;;5102689;28;19935;-83
2021/11/01 06:23:22;;;;;;;;;;;13.10;99.90;;;;;;5102592;28;19904;-84
2021/11/01 06:25:51;;;;;;;;;;;13.20;99.90;;;;;;5084224;28;20069;-90
2021/11/01 06:28:17;;;;;;;;;;;13.00;99.90;;;;;;5102422;28;20250;-82
2021/11/01 06:30:51;;;;;;;;;;;12.70;99.90;;;;;;5102822;28;19911;-91
2021/11/01 06:55:01;;;;;;;;;;;11.80;99.90;;;;;;5102597;28;19904;-88
2021/11/01 08:22:52;;;;;;;;;;;13.70;99.90;;;;;;5096746;28;19924;-83
2021/11/01 08:49:47;;;;;;;;;;;14.10;99.90;;;;;;5104860;28;19969;-92
2021/11/01 09:08:20;;;;;;;;;;;12.00;99.90;;;;;;5112486;28;20145;-89
2021/11/01 09:26:09;;;;;;;;;;;12.30;99.90;;;;;;5092491;28;19908;-84
2021/11/01 09:28:44;;;;;;;;;;;12.60;99.90;;;;;;5091282;28;20288;-84
2021/11/01 09:36:45;;;;;;;;;;;13.00;99.90;;;;;;5092409;28;19954;-84
2021/11/01 09:41:56;;;;;;;;;;;13.60;99.90;;;;;;5092489;28;20016;-84
2021/11/01 09:44:25;;;;;;;;;;;13.80;99.90;;;;;;5092448;28;19915;-84
2021/11/01 09:46:55;;;;;;;;;;;14.00;99.90;;;;;;5092606;28;20401;-85
2021/11/01 09:49:20;;;;;;;;;;;14.10;99.90;;;;;;5092774;28;20007;-84
2021/11/01 09:51:50;;;;;;;;;;;14.20;99.90;;;;;;5092090;28;20389;-84
2021/11/01 09:54:21;;;;;;;;;;;14.30;99.90;;;;;;5092172;28;20346;-85
2021/11/01 09:57:04;;;;;;;;;;;14.40;99.90;;;;;;5073871;28;20102;-85
2021/11/01 09:59:41;;;;;;;;;;;14.50;99.90;;;;;;5091885;28;19915;-85
2021/11/01 10:02:07;;;;;;;;;;;14.50;99.90;;;;;;5091824;28;19916;-86
2021/11/01 10:04:34;;;;;;;;;;;14.50;99.90;;;;;;5092172;28;20364;-84
2021/11/01 10:07:33;;;;;;;;;;;14.60;99.90;;;;;;5092144;28;19908;-84
2021/11/01 10:10:05;;;;;;;;;;;14.70;99.90;;;;;;5040711;28;19953;-86
2021/11/01 10:12:32;;;;;;;;;;;14.70;99.90;;;;;;5091521;28;19909;-85
2021/11/01 10:17:59;;;;;;;;;;;14.50;99.90;;;;;;5092091;28;19919;-85
2021/11/01 10:20:26;;;;;;;;;;;14.50;99.90;;;;;;5092264;28;19908;-85
2021/11/01 10:22:52;;;;;;;;;;;14.40;99.90;;;;;;5091736;28;19912;-85
2021/11/01 10:25:18;;;;;;;;;;;14.30;99.90;;;;;;5091794;28;20346;-85
2021/11/01 10:27:48;;;;;;;;;;;14.30;99.90;;;;;;5091386;28;19916;-85
2021/11/01 10:30:16;;;;;;;;;;;14.20;99.90;;;;;;5092077;28;19948;-85
2021/11/01 10:32:44;;;;;;;;;;;14.20;99.90;;;;;;5091169;28;19960;-84
2021/11/01 10:35:15;;;;;;;;;;;14.10;99.90;;;;;;5073429;28;20415;-85
2021/11/01 10:37:54;;;;;;;;;;;14.20;99.90;;;;;;5091243;28;19908;-85
2021/11/01 10:40:25;;;;;;;;;;;14.30;99.90;;;;;;5091206;28;19965;-85
2021/11/01 10:42:51;;;;;;;;;;;14.50;99.90;;;;;;5091061;28;19959;-85
2021/11/01 11:15:06;;;;;;;;;;;14.60;99.90;;;;;;5090496;28;19912;-84
2021/11/01 11:17:50;;;;;;;;;;;14.50;99.90;;;;;;5088520;28;19916;-84
2021/11/01 11:26:28;;;;;;;;;;;13.90;99.90;;;;;;5034527;28;19909;-86
2021/11/01 11:32:09;;;;;;;;;;;14.20;99.90;;;;;;5090488;28;19915;-85
2021/11/01 11:40:26;;;;;;;;;;;14.40;99.90;;;;;;5053107;28;20162;-86
2021/11/01 11:48:22;;;;;;;;;;;14.30;99.90;;;;;;5107249;28;19911;-86
2021/11/01 11:50:50;;;;;;;;;;;14.40;99.90;;;;;;5106847;28;19911;-86
2021/11/01 11:53:23;;;;;;;;;;;14.30;99.90;;;;;;5103751;28;19904;-86
2021/11/01 11:56:00;;;;;;;;;;;14.30;99.90;;;;;;5102980;28;19927;-86
2021/11/01 11:58:31;;;;;;;;;;;14.40;99.90;;;;;;5102288;28;19912;-86
2021/11/01 12:00:57;;;;;;;;;;;14.60;99.90;;;;;;5099964;28;20104;-85
2021/11/01 12:03:23;;;;;;;;;;;14.80;99.90;;;;;;5100230;28;19916;-85
2021/11/01 12:05:57;;;;;;;;;;;15.00;99.90;;;;;;5105729;28;19935;-87
2021/11/01 12:08:41;;;;;;;;;;;15.10;99.90;;;;;;5102738;28;19999;-85
2021/11/01 12:18:50;;;;;;;;;;;15.40;99.90;;;;;;5094214;28;19918;-85
2021/11/01 12:21:16;;;;;;;;;;;15.40;99.90;;;;;;5101372;28;19958;-86
2021/11/01 12:23:44;;;;;;;;;;;15.40;99.90;;;;;;5105619;28;19951;-86
2021/11/01 12:26:12;;;;;;;;;;;15.40;99.90;;;;;;5089106;28;19946;-86
2021/11/01 12:28:39;;;;;;;;;;;15.40;99.90;;;;;;5102922;28;19999;-86
2021/11/01 12:31:07;;;;;;;;;;;15.30;99.90;;;;;;5094292;28;19908;-87
2021/11/01 12:33:33;;;;;;;;;;;15.20;99.90;;;;;;5083896;28;19941;-85
2021/11/01 12:36:02;;;;;;;;;;;15.10;99.90;;;;;;5104388;28;19999;-85
2021/11/01 12:38:31;;;;;;;;;;;15.10;99.90;;;;;;5099802;28;19912;-86
2021/11/01 12:41:09;;;;;;;;;;;15.20;99.90;;;;;;5102701;28;20011;-86
2021/11/01 12:59:37;;;;;;;;;;;15.20;99.90;;;;;;5101124;28;20396;-86
2021/11/01 13:02:03;;;;;;;;;;;15.20;99.90;;;;;;5100296;28;19927;-86
2021/11/01 13:04:35;;;;;;;;;;;15.20;99.90;;;;;;5101575;28;19999;-86
2021/11/01 13:07:28;;;;;;;;;;;15.30;99.90;;;;;;5101842;28;19998;-85
2021/11/01 13:09:53;;;;;;;;;;;15.40;99.90;;;;;;5098086;28;19915;-85
2021/11/01 13:15:00;;;;;;;;;;;15.40;99.90;;;;;;5098836;28;19920;-85
2021/11/01 13:18:05;;;;;;;;;;;15.60;99.90;;;;;;5099536;28;19908;-85
2021/11/01 13:20:30;;;;;;;;;;;15.60;99.90;;;;;;5097092;28;20329;-85
2021/11/01 13:23:00;;;;;;;;;;;15.70;99.90;;;;;;5084300;28;19947;-85
2021/11/01 13:25:58;;;;;;;;;;;16.00;99.90;;;;;;5093237;28;19935;-85
2021/11/01 13:36:42;;;;;;;;;;;15.60;99.90;;;;;;5061869;28;19908;-85
2021/11/01 13:39:09;;;;;;;;;;;15.50;99.90;;;;;;5090813;28;19908;-86
2021/11/01 13:41:35;;;;;;;;;;;15.60;99.90;;;;;;5090638;28;19927;-86
2021/11/01 13:44:15;;;;;;;;;;;15.70;99.90;;;;;;5091318;28;19908;-86
2021/11/01 13:46:42;;;;;;;;;;;15.60;99.90;;;;;;5090904;28;19908;-85
2021/11/01 13:49:08;;;;;;;;;;;15.60;99.90;;;;;;5090913;28;19915;-86
2021/11/01 13:51:33;;;;;;;;;;;15.60;99.90;;;;;;5092573;28;20314;-84
2021/11/01 13:56:52;;;;;;;;;;;15.70;99.90;;;;;;5092160;28;19970;-84
2021/11/01 14:12:47;;;;;;;;;;;15.50;99.90;;;;;;5091998;28;19979;-84
2021/11/01 14:20:37;;;;;;;;;;;15.70;99.90;;;;;;5092226;28;19912;-83
2021/11/01 14:55:00;;;;;;;;;;;15.80;99.90;;;;;;5092999;28;19935;-86
2021/11/01 15:01:27;;;;;;;;;;;15.10;99.90;;;;;;5093965;28;19920;-90
2021/11/01 15:12:25;;;;;;;;;;;12.50;99.90;;;;;;5093998;28;20402;-90
2021/11/01 15:15:03;;;;;;;;;;;12.50;99.90;;;;;;5091352;28;19908;-88
2021/11/01 15:20:16;;;;;;;;;;;12.60;99.90;;;;;;5091625;28;19959;-86
2021/11/01 15:38:57;;;;;;;;;;;13.10;99.90;;;;;;5102959;28;19921;-87
2021/11/01 16:19:18;;;;;;;;;;;12.20;99.90;;;;;;5101622;28;19908;-92
2021/11/01 16:21:46;;;;;;;;;;;12.10;99.90;;;;;;5082619;28;19916;-92
2021/11/01 16:24:12;;;;;;;;;;;12.00;99.90;;;;;;5084852;28;19915;-92
2021/11/01 16:26:38;;;;;;;;;;;12.00;99.90;;;;;;5103646;28;20279;-89
2021/11/01 16:29:14;;;;;;;;;;;11.90;99.90;;;;;;5099403;28;20205;-89
2021/11/01 16:31:48;;;;;;;;;;;11.90;99.90;;;;;;5099124;28;19909;-92
2021/11/01 16:34:23;;;;;;;;;;;11.90;99.90;;;;;;5079152;28;20429;-88
2021/11/01 16:39:21;;;;;;;;;;;11.90;99.90;;;;;;5095739;28;19908;-93
2021/11/01 16:41:48;;;;;;;;;;;12.00;99.90;;;;;;5071642;28;19947;-89
2021/11/01 16:44:25;;;;;;;;;;;11.80;99.90;;;;;;5076428;28;20328;-92
2021/11/01 16:46:51;;;;;;;;;;;11.90;99.90;;;;;;5061276;28;19912;-94
2021/11/01 16:49:20;;;;;;;;;;;11.80;99.90;;;;;;5058219;28;19908;-94
2021/11/01 16:51:46;;;;;;;;;;;11.80;99.90;;;;;;5057597;28;19915;-92
2021/11/01 16:54:15;;;;;;;;;;;11.80;99.90;;;;;;5058770;28;19908;-93
2021/11/01 17:01:58;;;;;;;;;;;11.70;99.90;;;;;;5079846;28;19916;-92
2021/11/01 17:04:25;;;;;;;;;;;11.80;99.90;;;;;;5088867;28;20049;-90
2021/11/01 17:07:03;;;;;;;;;;;11.80;99.90;;;;;;5081098;28;19982;-91
2021/11/01 17:23:27;;;;;;;;;;;12.00;99.90;;;;;;5074240;28;19935;-87
2021/11/01 17:26:21;;;;;;;;;;;12.00;99.90;;;;;;5076555;28;19924;-86
2021/11/01 17:29:09;;;;;;;;;;;12.10;99.90;;;;;;5083987;28;19913;-84
2021/11/01 17:37:19;;;;;;;;;;;12.30;99.90;;;;;;5082705;28;19911;-83
2021/11/01 18:43:18;;;;;;;;;;;12.00;99.90;;;;;;5068170;28;20282;-93
2021/11/01 18:51:25;;;;;;;;;;;11.90;99.90;;;;;;5058460;28;19970;-88
2021/11/01 18:54:29;;;;;;;;;;;11.90;99.90;;;;;;5054676;28;19908;-88
2021/11/01 18:56:57;;;;;;;;;;;11.90;99.90;;;;;;5046961;28;19913;-86
2021/11/01 18:59:25;;;;;;;;;;;11.90;99.90;;;;;;5054599;28;20004;-87
2021/11/01 19:02:07;;;;;;;;;;;12.00;99.90;;;;;;5057007;28;20385;-87
2021/11/01 19:04:40;;;;;;;;;;;12.00;99.90;;;;;;5035209;28;19928;-87
2021/11/01 19:07:12;;;;;;;;;;;12.20;99.90;;;;;;5048963;28;19912;-85
2021/11/01 20:04:41;;;;;;;;;;;11.60;99.90;;;;;;5044531;28;20031;-86
2021/11/01 21:25:15;;;;;;;;;;;11.80;99.90;;;;;;5064740;28;20204;-87
2021/11/01 21:27:41;;;;;;;;;;;11.80;99.90;;;;;;5044657;28;19921;-86
2021/11/01 21:30:07;;;;;;;;;;;11.90;99.90;;;;;;5053812;28;19996;-86
2021/11/01 21:32:33;;;;;;;;;;;12.00;99.90;;;;;;5070744;28;20149;-85
2021/11/01 21:35:02;;;;;;;;;;;12.00;99.90;;;;;;5066414;28;19905;-85
2021/11/01 21:37:28;;;;;;;;;;;12.00;99.90;;;;;;5058860;28;19912;-85
2021/11/01 21:39:54;;;;;;;;;;;12.00;99.90;;;;;;5067881;28;19916;-84
2021/11/01 21:42:19;;;;;;;;;;;12.00;99.90;;;;;;5041558;28;20374;-85
2021/11/01 21:44:45;;;;;;;;;;;11.90;99.90;;;;;;5049476;28;19953;-85
2021/11/01 21:47:11;;;;;;;;;;;11.90;99.90;;;;;;5051547;28;20343;-85
2021/11/01 21:49:36;;;;;;;;;;;11.80;99.90;;;;;;5046858;28;19909;-86
2021/11/01 21:52:03;;;;;;;;;;;11.90;99.90;;;;;;5047503;28;20011;-85
2021/11/01 21:54:32;;;;;;;;;;;11.90;99.90;;;;;;5046327;28;19909;-85
2021/11/01 22:10:44;;;;;;;;;;;12.10;99.90;;;;;;5044972;28;19919;-84
2021/11/01 22:34:36;;;;;;;;;;;12.10;99.90;;;;;;5043248;28;19908;-85
2021/11/01 22:39:56;;;;;;;;;;;12.20;99.90;;;;;;5045256;28;19928;-84
2021/11/01 22:42:42;;;;;;;;;;;12.30;99.90;;;;;;5046549;28;20171;-85
2021/11/01 22:45:22;;;;;;;;;;;12.20;99.90;;;;;;5042501;28;19920;-85
2021/11/01 22:48:52;;;;;;;;;;;12.20;99.90;;;;;;5051958;28;20485;-85
2021/11/01 22:56:32;;;;;;;;;;;12.00;99.90;;;;;;5006790;28;19921;-85
2021/11/01 22:58:58;;;;;;;;;;;12.00;99.90;;;;;;5045761;28;19908;-85
2021/11/01 23:01:26;;;;;;;;;;;11.90;99.90;;;;;;5043100;28;20440;-85
2021/11/01 23:34:02;;;;;;;;;;;11.20;99.90;;;;;;5049633;28;20000;-82
2021/11/01 23:36:28;;;;;;;;;;;10.90;99.90;;;;;;5048873;28;19908;-82
2021/11/01 23:38:53;;;;;;;;;;;10.70;99.90;;;;;;5052351;28;19920;-84
2021/11/01 23:41:19;;;;;;;;;;;10.70;99.90;;;;;;5048235;28;19921;-84
2021/11/01 23:43:47;;;;;;;;;;;10.80;99.90;;;;;;5045512;28;20017;-84
2021/11/01 23:46:12;;;;;;;;;;;10.80;99.90;;;;;;5034936;28;20357;-85
2021/11/01 23:48:38;;;;;;;;;;;10.70;99.90;;;;;;5059153;28;19915;-86
2021/11/01 23:51:03;;;;;;;;;;;10.70;99.90;;;;;;5054624;28;19940;-86
2021/11/01 23:53:37;;;;;;;;;;;10.70;99.90;;;;;;5060686;28;19909;-87
2021/11/01 23:56:04;;;;;;;;;;;10.70;99.90;;;;;;5059731;28;19924;-88
2021/11/01 23:58:29;;;;;;;;;;;10.80;99.90;;;;;;5064578;28;19912;-91
